createdAt,value
2023-02-12T00:00:19.348Z,77.43
2023-02-12T00:02:22.426Z,76.70
2023-02-12T00:04:25.268Z,78.93
2023-02-12T00:06:28.469Z,75.00
2023-02-12T00:08:31.543Z,77.47
2023-02-12T00:10:36.199Z,78.57
2023-02-12T00:12:39.112Z,82.93
2023-02-12T00:14:42.032Z,79.10
2023-02-12T00:16:44.942Z,77.53
2023-02-12T00:18:47.844Z,68.13
2023-02-12T00:20:50.689Z,75.13
2023-02-12T00:22:53.443Z,81.07
2023-02-12T00:24:56.578Z,68.07
2023-02-12T00:27:00.742Z,74.47
2023-02-12T00:29:03.542Z,72.00
2023-02-12T00:31:07.943Z,75.87
2023-02-12T00:33:10.867Z,79.30
2023-02-12T00:35:14.324Z,80.63
2023-02-12T00:37:17.519Z,76.90
2023-02-12T00:39:20.389Z,81.23
2023-02-12T00:41:23.920Z,73.63
2023-02-12T00:43:28.531Z,79.67
2023-02-12T00:45:31.369Z,72.07
2023-02-12T00:47:34.340Z,87.37
2023-02-12T00:49:37.180Z,81.13
2023-02-12T00:51:39.979Z,73.23
2023-02-12T00:53:43.159Z,68.03
2023-02-12T00:55:45.949Z,75.13
2023-02-12T00:57:48.779Z,83.07
2023-02-12T00:59:52.975Z,71.40
2023-02-12T01:01:56.629Z,68.97
2023-02-12T01:04:00.134Z,85.73
2023-02-12T01:06:03.013Z,84.97
2023-02-12T01:08:06.225Z,73.57
2023-02-12T01:10:09.902Z,78.40
2023-02-12T01:12:12.800Z,68.00
2023-02-12T01:14:15.668Z,68.77
2023-02-12T01:16:21.224Z,76.37
2023-02-12T01:18:25.867Z,67.63
2023-02-12T01:20:28.658Z,70.27
2023-02-12T01:22:31.500Z,75.63
2023-02-12T01:24:34.357Z,78.83
2023-02-12T01:26:38.106Z,71.90
2023-02-12T01:28:41.888Z,74.00
2023-02-12T01:30:44.983Z,76.73
2023-02-12T01:32:49.266Z,68.70
2023-02-12T01:34:52.200Z,65.97
2023-02-12T01:36:57.615Z,69.17
2023-02-12T01:39:02.862Z,72.70
2023-02-12T01:41:06.739Z,72.13
2023-02-12T01:43:12.613Z,69.73
2023-02-12T01:45:46.775Z,87.33
2023-02-12T01:47:51.059Z,64.63
2023-02-12T01:49:53.878Z,71.93
2023-02-12T01:52:00.615Z,75.80
2023-02-12T01:54:05.717Z,67.87
2023-02-12T01:56:09.822Z,72.93
2023-02-12T01:58:12.676Z,68.60
2023-02-12T02:00:17.797Z,74.40
2023-02-12T02:02:20.730Z,75.30
2023-02-12T02:04:29.222Z,75.63
2023-02-12T02:06:33.864Z,73.57
2023-02-12T02:08:37.389Z,74.87
2023-02-12T02:10:40.389Z,69.30
2023-02-12T02:13:01.021Z,72.30
2023-02-12T02:15:05.138Z,71.97
2023-02-12T02:17:17.648Z,67.10
2023-02-12T02:19:30.959Z,60.33
2023-02-12T02:21:44.781Z,64.60
2023-02-12T02:24:00.655Z,74.80
2023-02-12T02:26:24.101Z,73.13
2023-02-12T02:28:44.386Z,69.27
2023-02-12T02:30:52.166Z,66.80
2023-02-12T02:33:14.947Z,69.50
2023-02-12T02:35:24.419Z,71.87
2023-02-12T02:37:29.888Z,69.70
2023-02-12T02:39:38.726Z,77.50
2023-02-12T02:41:46.041Z,71.30
2023-02-12T02:43:50.417Z,68.90
2023-02-12T02:45:57.930Z,66.43
2023-02-12T02:48:04.560Z,58.47
2023-02-12T02:50:09.250Z,57.90
2023-02-12T02:52:15.666Z,68.73
2023-02-12T02:54:20.957Z,69.03
2023-02-12T02:56:25.566Z,65.33
2023-02-12T02:58:35.253Z,67.33
2023-02-12T03:00:40.498Z,67.57
2023-02-12T03:02:48.477Z,70.80
2023-02-12T03:04:53.211Z,71.77
2023-02-12T03:07:00.527Z,71.93
2023-02-12T03:09:08.056Z,66.03
2023-02-12T03:11:15.096Z,70.13
2023-02-12T03:13:21.622Z,79.90
2023-02-12T03:15:29.799Z,65.00
2023-02-12T03:17:35.012Z,69.27
2023-02-12T03:19:43.148Z,76.93
2023-02-12T03:21:49.369Z,76.50
2023-02-12T03:23:56.702Z,68.60
2023-02-12T03:26:03.491Z,60.70
2023-02-12T03:28:10.448Z,67.87
2023-02-12T03:30:14.313Z,71.50
2023-02-12T03:32:30.806Z,63.97
2023-02-12T03:34:48.441Z,74.47
2023-02-12T03:36:54.158Z,68.13
2023-02-12T03:38:58.878Z,68.60
2023-02-12T03:41:05.911Z,64.30
2023-02-12T03:43:13.726Z,61.00
2023-02-12T03:45:24.051Z,65.83
2023-02-12T03:47:30.452Z,66.67
2023-02-12T03:49:39.619Z,79.33
2023-02-12T03:51:46.262Z,67.07
2023-02-12T03:53:49.663Z,64.20
2023-02-12T03:55:56.013Z,70.23
2023-02-12T03:58:01.559Z,65.87
2023-02-12T04:00:10.746Z,68.17
2023-02-12T04:02:23.354Z,71.57
2023-02-12T04:04:27.093Z,67.97
2023-02-12T04:06:30.269Z,61.73
2023-02-12T04:08:34.551Z,64.23
2023-02-12T04:10:46.226Z,60.70
2023-02-12T04:12:54.119Z,67.00
2023-02-12T04:15:08.508Z,67.87
2023-02-12T04:17:16.380Z,64.83
2023-02-12T04:19:26.976Z,64.10
2023-02-12T04:21:39.652Z,61.93
2023-02-12T04:23:49.840Z,62.23
2023-02-12T04:25:57.589Z,61.30
2023-02-12T04:28:08.255Z,57.07
2023-02-12T04:30:18.410Z,63.00
2023-02-12T04:32:26.175Z,67.93
2023-02-12T04:34:33.789Z,61.70
2023-02-12T04:36:41.481Z,60.10
2023-02-12T04:38:49.621Z,62.77
2023-02-12T04:40:53.386Z,61.27
2023-02-12T04:42:56.217Z,58.47
2023-02-12T04:44:59.053Z,65.10
2023-02-12T04:47:02.061Z,72.10
2023-02-12T04:49:04.898Z,60.13
2023-02-12T04:51:07.706Z,60.63
2023-02-12T04:53:11.700Z,59.13
2023-02-12T04:55:16.646Z,56.77
2023-02-12T04:57:19.490Z,68.53
2023-02-12T04:59:22.262Z,62.07
2023-02-12T05:01:25.206Z,61.23
2023-02-12T05:03:28.058Z,60.30
2023-02-12T05:05:30.871Z,62.40
2023-02-12T05:07:33.733Z,63.57
2023-02-12T05:09:36.541Z,66.70
2023-02-12T05:11:40.755Z,58.93
2023-02-12T05:13:43.523Z,62.50
2023-02-12T05:15:46.351Z,64.30
2023-02-12T05:17:49.353Z,55.47
2023-02-12T05:19:52.250Z,62.80
2023-02-12T05:21:55.077Z,59.70
2023-02-12T05:23:57.914Z,53.93
2023-02-12T05:26:02.142Z,58.47
2023-02-12T05:28:06.421Z,59.70
2023-02-12T05:30:10.552Z,53.87
2023-02-12T05:32:13.493Z,54.43
2023-02-12T05:34:16.316Z,57.13
2023-02-12T05:36:20.654Z,56.37
2023-02-12T05:38:23.743Z,56.80
2023-02-12T05:40:26.595Z,56.03
2023-02-12T05:42:30.492Z,59.43
2023-02-12T05:44:34.687Z,53.13
2023-02-12T05:46:37.508Z,50.83
2023-02-12T05:48:41.017Z,55.63
2023-02-12T05:50:43.789Z,53.07
2023-02-12T05:52:46.817Z,57.07
2023-02-12T05:54:50.686Z,61.93
2023-02-12T05:56:53.544Z,50.87
2023-02-12T05:58:57.941Z,56.00
2023-02-12T06:01:02.112Z,62.33
2023-02-12T06:03:05.035Z,60.23
2023-02-12T06:05:08.222Z,56.60
2023-02-12T06:07:11.027Z,61.47
2023-02-12T06:09:14.891Z,60.43
2023-02-12T06:11:19.356Z,60.80
2023-02-12T06:13:22.123Z,57.93
2023-02-12T06:15:25.013Z,56.10
2023-02-12T06:17:29.208Z,55.10
2023-02-12T06:19:32.044Z,62.67
2023-02-12T06:21:34.945Z,61.83
2023-02-12T06:23:38.119Z,56.73
2023-02-12T06:25:40.916Z,58.03
2023-02-12T06:27:43.774Z,59.07
2023-02-12T06:29:46.799Z,57.03
2023-02-12T06:31:50.209Z,60.77
2023-02-12T06:33:55.024Z,56.57
2023-02-12T06:35:58.177Z,51.43
2023-02-12T06:38:01.222Z,58.93
2023-02-12T06:40:04.015Z,55.20
2023-02-12T06:42:06.945Z,51.37
2023-02-12T06:44:09.785Z,49.80
2023-02-12T06:46:12.942Z,50.93
2023-02-12T06:48:15.780Z,53.50
2023-02-12T06:50:20.359Z,49.97
2023-02-12T06:52:23.248Z,59.90
2023-02-12T06:54:26.103Z,54.17
2023-02-12T06:56:28.911Z,54.60
2023-02-12T06:58:31.792Z,54.77
2023-02-12T07:00:34.692Z,50.30
2023-02-12T07:02:39.097Z,55.40
2023-02-12T07:04:42.020Z,56.97
2023-02-12T07:06:46.263Z,62.00
2023-02-12T07:08:51.798Z,55.73
2023-02-12T07:10:54.683Z,59.37
2023-02-12T07:12:57.556Z,54.53
2023-02-12T07:15:00.386Z,49.27
2023-02-12T07:17:03.927Z,57.40
2023-02-12T07:19:06.776Z,55.23
2023-02-12T07:21:10.594Z,57.30
2023-02-12T07:23:15.010Z,48.20
2023-02-12T07:25:17.913Z,53.17
2023-02-12T07:27:20.749Z,57.90
2023-02-12T07:29:23.670Z,56.57
2023-02-12T07:31:26.706Z,57.73
2023-02-12T07:33:29.569Z,53.37
2023-02-12T07:35:32.453Z,56.57
2023-02-12T07:37:35.253Z,60.13
2023-02-12T07:39:39.480Z,57.50
2023-02-12T07:41:42.417Z,55.23
2023-02-12T07:43:46.647Z,62.40
2023-02-12T07:45:49.556Z,61.43
2023-02-12T07:47:52.583Z,51.47
2023-02-12T07:49:55.634Z,49.23
2023-02-12T07:51:58.582Z,48.90
2023-02-12T07:54:01.753Z,53.47
2023-02-12T07:56:11.445Z,54.03
2023-02-12T07:58:14.299Z,50.10
2023-02-12T08:00:18.059Z,60.23
2023-02-12T08:02:21.224Z,58.03
2023-02-12T08:04:26.137Z,51.23
2023-02-12T08:06:31.679Z,61.43
2023-02-12T08:08:34.853Z,60.37
2023-02-12T08:10:37.684Z,53.60
2023-02-12T08:12:41.864Z,50.83
2023-02-12T08:14:44.870Z,58.17
2023-02-12T08:16:48.962Z,53.07
2023-02-12T08:18:52.609Z,58.20
2023-02-12T08:20:55.415Z,56.73
2023-02-12T08:22:58.792Z,57.93
2023-02-12T08:25:01.608Z,54.03
2023-02-12T08:27:06.175Z,53.27
2023-02-12T08:29:12.181Z,48.73
2023-02-12T08:31:17.026Z,44.13
2023-02-12T08:33:19.914Z,51.50
2023-02-12T08:35:22.754Z,53.30
2023-02-12T08:37:25.593Z,49.67
2023-02-12T08:39:30.674Z,43.97
2023-02-12T08:41:33.904Z,46.60
2023-02-12T08:43:37.249Z,55.60
2023-02-12T08:45:41.498Z,47.00
2023-02-12T08:47:44.335Z,49.20
2023-02-12T08:49:47.214Z,49.10
2023-02-12T08:51:51.489Z,60.03
2023-02-12T08:53:55.781Z,43.70
2023-02-12T08:55:58.592Z,44.47
2023-02-12T08:58:02.665Z,45.73
2023-02-12T09:00:06.477Z,44.23
2023-02-12T09:02:11.944Z,42.40
2023-02-12T09:04:17.846Z,54.87
2023-02-12T09:06:22.358Z,39.60
2023-02-12T09:08:25.167Z,45.07
2023-02-12T09:10:27.986Z,48.43
2023-02-12T09:12:30.797Z,40.50
2023-02-12T09:14:33.624Z,39.67
2023-02-12T09:16:37.625Z,51.60
2023-02-12T09:18:41.841Z,48.53
2023-02-12T09:20:45.756Z,39.13
2023-02-12T09:22:48.538Z,42.43
2023-02-12T09:24:51.355Z,53.77
2023-02-12T09:26:54.228Z,38.53
2023-02-12T09:28:57.197Z,45.40
2023-02-12T09:31:00.120Z,42.10
2023-02-12T09:33:03.057Z,42.37
2023-02-12T09:35:07.911Z,40.53
2023-02-12T09:37:10.800Z,43.50
2023-02-12T09:39:13.683Z,46.53
2023-02-12T09:41:51.868Z,39.20
2023-02-12T09:43:57.645Z,43.83
2023-02-12T09:46:04.509Z,48.30
2023-02-12T09:48:19.940Z,44.20
2023-02-12T09:50:33.621Z,51.77
2023-02-12T09:52:37.332Z,46.13
2023-02-12T09:54:40.803Z,44.87
2023-02-12T09:56:47.204Z,42.00
2023-02-12T09:58:52.895Z,46.43
2023-02-12T10:00:55.741Z,41.07
2023-02-12T10:03:03.994Z,58.03
2023-02-12T10:05:16.093Z,43.33
2023-02-12T10:07:28.014Z,39.83
2023-02-12T10:09:48.310Z,43.17
2023-02-12T10:11:56.661Z,39.63
2023-02-12T10:14:09.774Z,40.23
2023-02-12T10:16:18.385Z,42.57
2023-02-12T10:18:42.007Z,36.23
2023-02-12T10:20:54.013Z,42.33
2023-02-12T10:23:04.662Z,38.23
2023-02-12T10:25:16.793Z,33.27
2023-02-12T10:27:27.194Z,37.90
2023-02-12T10:29:33.466Z,38.30
2023-02-12T10:31:38.584Z,43.27
2023-02-12T10:33:44.478Z,37.00
2023-02-12T10:35:51.210Z,45.30
2023-02-12T10:37:57.635Z,43.70
2023-02-12T10:40:05.684Z,35.23
2023-02-12T10:42:11.875Z,32.67
2023-02-12T10:44:14.744Z,35.90
2023-02-12T10:46:18.167Z,32.97
2023-02-12T10:48:23.322Z,51.43
2023-02-12T10:50:30.599Z,39.30
2023-02-12T10:52:41.019Z,30.67
2023-02-12T10:54:45.288Z,37.90
2023-02-12T10:56:49.495Z,32.77
2023-02-12T10:58:57.563Z,47.23
2023-02-12T11:01:01.568Z,32.67
2023-02-12T11:03:21.285Z,29.17
2023-02-12T11:05:26.336Z,27.23
2023-02-12T11:07:29.845Z,27.43
2023-02-12T11:09:36.527Z,30.77
2023-02-12T11:11:39.993Z,33.47
2023-02-12T11:13:46.746Z,34.97
2023-02-12T11:15:50.083Z,32.57
2023-02-12T11:18:00.942Z,30.77
2023-02-12T11:20:09.730Z,30.37
2023-02-12T11:22:14.594Z,46.30
2023-02-12T11:24:38.631Z,37.50
2023-02-12T11:26:42.394Z,41.07
2023-02-12T11:28:54.842Z,39.00
2023-02-12T11:31:00.218Z,38.50
2023-02-12T11:33:17.350Z,38.03
2023-02-12T11:35:25.843Z,34.60
2023-02-12T11:37:28.740Z,36.10
2023-02-12T11:39:33.874Z,42.87
2023-02-12T11:41:38.886Z,29.53
2023-02-12T11:43:41.888Z,27.30
2023-02-12T11:45:47.957Z,30.90
2023-02-12T11:47:51.804Z,35.30
2023-02-12T11:49:56.766Z,34.53
2023-02-12T11:52:02.804Z,42.60
2023-02-12T11:54:07.371Z,36.20
2023-02-12T11:56:12.536Z,36.63
2023-02-12T11:58:16.811Z,33.13
2023-02-12T12:00:22.723Z,28.57
2023-02-12T12:02:35.870Z,36.10
2023-02-12T12:04:40.411Z,35.67
2023-02-12T12:06:47.446Z,30.40
2023-02-12T12:08:53.844Z,32.10
2023-02-12T12:10:58.484Z,33.90
2023-02-12T12:13:04.873Z,41.40
2023-02-12T12:15:34.339Z,28.40
2023-02-12T12:18:01.315Z,29.87
2023-02-12T12:20:07.276Z,35.90
2023-02-12T12:22:15.910Z,31.37
2023-02-12T12:24:21.839Z,45.73
2023-02-12T12:26:26.621Z,32.53
2023-02-12T12:28:33.181Z,36.17
2023-02-12T12:30:48.165Z,32.27
2023-02-12T12:32:53.941Z,54.07
2023-02-12T12:34:56.805Z,35.00
2023-02-12T12:37:18.728Z,41.53
2023-02-12T12:39:29.115Z,34.63
2023-02-12T12:41:39.128Z,35.33
2023-02-12T12:43:50.381Z,44.27
2023-02-12T12:46:11.377Z,43.93
2023-02-12T12:48:25.091Z,34.33
2023-02-12T12:50:36.677Z,32.60
2023-02-12T12:53:01.786Z,31.60
2023-02-12T12:55:28.818Z,37.47
2023-02-12T12:57:41.133Z,34.50
2023-02-12T13:00:12.790Z,34.43
2023-02-12T13:02:44.906Z,33.40
2023-02-12T13:05:02.666Z,29.53
2023-02-12T13:07:28.580Z,36.70
2023-02-12T13:09:43.928Z,33.57
2023-02-12T13:11:55.981Z,35.53
2023-02-12T13:14:06.083Z,37.10
2023-02-12T13:16:15.219Z,40.00
2023-02-12T13:18:24.867Z,45.77
2023-02-12T13:20:37.200Z,48.40
2023-02-12T13:22:46.593Z,48.57
2023-02-12T13:24:53.882Z,44.73
2023-02-12T13:26:58.621Z,44.30
2023-02-12T13:29:05.409Z,43.10
2023-02-12T13:31:31.851Z,47.37
2023-02-12T13:33:41.317Z,42.33
2023-02-12T13:35:47.533Z,45.93
2023-02-12T13:37:52.764Z,44.60
2023-02-12T13:40:00.174Z,48.60
2023-02-12T13:42:14.001Z,40.87
2023-02-12T13:44:26.348Z,39.80
2023-02-12T13:46:35.656Z,37.73
2023-02-12T13:48:49.335Z,38.83
2023-02-12T13:51:01.253Z,38.50
2023-02-12T13:53:10.984Z,36.47
2023-02-12T13:55:23.609Z,34.43
2023-02-12T13:57:26.529Z,39.03
2023-02-12T13:59:48.950Z,36.67
2023-02-12T14:01:52.382Z,29.40
2023-02-12T14:03:55.349Z,28.40
2023-02-12T14:06:17.028Z,36.87
2023-02-12T14:08:40.042Z,30.03
2023-02-12T14:10:43.187Z,28.80
2023-02-12T14:12:46.984Z,29.80
2023-02-12T14:14:52.070Z,30.80
2023-02-12T14:16:54.985Z,28.13
2023-02-12T14:19:31.446Z,31.23
2023-02-12T14:21:39.434Z,29.20
2023-02-12T14:23:43.409Z,26.87
2023-02-12T14:25:48.160Z,36.90
2023-02-12T14:27:51.855Z,29.23
2023-02-12T14:30:27.855Z,30.13
2023-02-12T14:32:58.454Z,32.47
2023-02-12T14:35:31.713Z,27.53
2023-02-12T14:37:38.221Z,29.90
2023-02-12T14:39:41.403Z,26.30
2023-02-12T14:41:44.329Z,29.33
2023-02-12T14:44:02.517Z,28.70
2023-02-12T14:46:42.328Z,32.60
2023-02-12T14:48:53.426Z,39.63
2023-02-12T14:50:56.523Z,32.70
2023-02-12T14:53:14.855Z,29.80
2023-02-12T14:55:23.820Z,39.40
2023-02-12T14:57:29.046Z,34.23
2023-02-12T14:59:35.396Z,36.73
2023-02-12T15:01:38.519Z,43.47
2023-02-12T15:03:44.355Z,34.10
2023-02-12T15:05:51.400Z,37.50
2023-02-12T15:07:58.359Z,31.47
2023-02-12T15:10:10.171Z,34.37
2023-02-12T15:12:18.659Z,42.23
2023-02-12T15:14:24.507Z,37.80
2023-02-12T15:16:33.846Z,32.07
2023-02-12T15:18:45.074Z,36.03
2023-02-12T15:20:51.811Z,42.40
2023-02-12T15:22:54.913Z,37.10
2023-02-12T15:25:17.572Z,34.63
2023-02-12T15:27:21.732Z,36.60
2023-02-12T15:29:27.269Z,33.57
2023-02-12T15:31:32.347Z,30.83
2023-02-12T15:33:37.205Z,32.40
2023-02-12T15:35:45.193Z,37.00
2023-02-12T15:37:48.635Z,36.63
2023-02-12T15:39:54.587Z,30.20
2023-02-12T15:41:58.858Z,35.83
2023-02-12T15:44:03.042Z,38.47
2023-02-12T15:46:07.820Z,35.27
2023-02-12T15:48:15.039Z,38.83
2023-02-12T15:50:19.120Z,29.07
2023-02-12T15:52:24.760Z,33.03
2023-02-12T15:54:28.524Z,31.97
2023-02-12T15:56:32.009Z,41.33
2023-02-12T15:58:44.076Z,34.27
2023-02-12T16:00:48.101Z,32.40
2023-02-12T16:02:53.055Z,37.43
2023-02-12T16:04:56.371Z,36.80
2023-02-12T16:06:59.870Z,37.70
2023-02-12T16:09:05.827Z,34.03
2023-02-12T16:11:14.701Z,29.77
2023-02-12T16:13:19.544Z,37.37
2023-02-12T16:15:30.810Z,32.47
2023-02-12T16:17:36.558Z,37.97
2023-02-12T16:19:39.429Z,38.73
2023-02-12T16:21:42.418Z,36.30
2023-02-12T16:23:46.058Z,38.00
2023-02-12T16:25:55.812Z,36.70
2023-02-12T16:28:00.786Z,36.03
2023-02-12T16:30:07.090Z,37.97
2023-02-12T16:32:29.037Z,34.90
2023-02-12T16:34:36.789Z,35.80
2023-02-12T16:36:48.198Z,38.70
2023-02-12T16:38:52.235Z,40.77
2023-02-12T16:41:31.799Z,40.30
2023-02-12T16:43:34.650Z,32.77
2023-02-12T16:45:46.723Z,36.73
2023-02-12T16:47:52.062Z,32.67
2023-02-12T16:49:56.154Z,39.40
2023-02-12T16:52:22.899Z,34.60
2023-02-12T16:54:31.820Z,35.20
2023-02-12T16:56:38.738Z,34.40
2023-02-12T16:58:41.793Z,36.93
2023-02-12T17:00:44.738Z,31.57
2023-02-12T17:02:48.124Z,31.13
2023-02-12T17:04:52.366Z,31.67
2023-02-12T17:06:55.223Z,31.57
2023-02-12T17:08:58.417Z,32.27
2023-02-12T17:11:01.340Z,33.80
2023-02-12T17:13:04.234Z,32.03
2023-02-12T17:15:07.318Z,30.07
2023-02-12T17:17:10.222Z,29.87
2023-02-12T17:19:13.394Z,35.37
2023-02-12T17:21:22.326Z,29.63
2023-02-12T17:23:25.980Z,33.70
2023-02-12T17:25:30.104Z,33.37
2023-02-12T17:27:32.958Z,36.40
2023-02-12T17:29:35.893Z,34.10
2023-02-12T17:31:39.240Z,34.07
2023-02-12T17:33:42.329Z,34.47
2023-02-12T17:35:45.269Z,36.00
2023-02-12T17:37:49.471Z,35.67
2023-02-12T17:39:52.459Z,34.97
2023-02-12T17:41:55.359Z,44.07
2023-02-12T17:43:58.362Z,31.57
2023-02-12T17:46:01.525Z,32.77
2023-02-12T17:48:04.791Z,34.40
2023-02-12T17:50:09.478Z,32.60
2023-02-12T17:52:12.410Z,34.90
2023-02-12T17:54:17.671Z,31.67
2023-02-12T17:56:25.504Z,31.87
2023-02-12T17:58:28.354Z,31.43
2023-02-12T18:00:31.279Z,33.93
2023-02-12T18:02:34.216Z,31.33
2023-02-12T18:04:37.079Z,39.00
2023-02-12T18:06:40.026Z,32.67
2023-02-12T18:08:43.551Z,30.10
2023-02-12T18:10:47.796Z,30.13
2023-02-12T18:12:50.640Z,26.70
2023-02-12T18:14:57.822Z,35.40
2023-02-12T18:17:01.137Z,27.60
2023-02-12T18:19:05.726Z,29.93
2023-02-12T18:21:09.882Z,27.20
2023-02-12T18:23:12.728Z,28.90
2023-02-12T18:25:16.847Z,28.47
2023-02-12T18:27:21.640Z,30.80
2023-02-12T18:29:24.481Z,31.20
2023-02-12T18:31:27.583Z,27.60
2023-02-12T18:33:30.752Z,27.63
2023-02-12T18:35:33.667Z,30.87
2023-02-12T18:37:36.675Z,27.73
2023-02-12T18:39:39.840Z,34.90
2023-02-12T18:41:42.732Z,31.03
2023-02-12T18:43:47.810Z,27.43
2023-02-12T18:45:50.676Z,35.03
2023-02-12T18:47:53.559Z,30.10
2023-02-12T18:49:57.956Z,28.90
2023-02-12T18:52:01.982Z,26.37
2023-02-12T18:54:07.857Z,29.60
2023-02-12T18:56:12.596Z,26.43
2023-02-12T18:58:15.462Z,28.27
2023-02-12T19:00:20.719Z,28.53
2023-02-12T19:02:23.776Z,30.20
2023-02-12T19:04:27.946Z,30.43
2023-02-12T19:06:32.397Z,25.87
2023-02-12T19:08:35.249Z,23.67
2023-02-12T19:10:40.013Z,29.00
2023-02-12T19:12:43.003Z,26.30
2023-02-12T19:14:45.919Z,26.37
2023-02-12T19:16:51.796Z,26.53
2023-02-12T19:18:58.351Z,28.57
2023-02-12T19:21:01.349Z,30.10
2023-02-12T19:23:04.280Z,23.87
2023-02-12T19:25:07.900Z,25.73
2023-02-12T19:27:11.387Z,26.33
2023-02-12T19:29:14.587Z,28.00
2023-02-12T19:31:19.258Z,26.87
2023-02-12T19:33:23.525Z,27.53
2023-02-12T19:35:26.407Z,27.37
2023-02-12T19:37:29.544Z,25.63
2023-02-12T19:39:32.493Z,26.10
2023-02-12T19:41:40.771Z,26.30
2023-02-12T19:43:44.692Z,26.50
2023-02-12T19:45:47.666Z,25.73
2023-02-12T19:47:51.777Z,31.20
2023-02-12T19:49:55.954Z,24.53
2023-02-12T19:51:58.927Z,22.73
2023-02-12T19:54:02.666Z,32.20
2023-02-12T19:56:07.261Z,24.60
2023-02-12T19:58:10.210Z,34.83
2023-02-12T20:00:14.831Z,25.43
2023-02-12T20:02:18.255Z,26.70
2023-02-12T20:04:22.644Z,28.77
2023-02-12T20:06:29.161Z,27.13
2023-02-12T20:08:33.555Z,27.73
2023-02-12T20:10:36.378Z,23.80
2023-02-12T20:12:41.178Z,27.00
2023-02-12T20:14:44.011Z,29.27
2023-02-12T20:16:47.950Z,28.33
2023-02-12T20:18:53.495Z,28.70
2023-02-12T20:20:56.654Z,26.17
2023-02-12T20:23:01.254Z,21.90
2023-02-12T20:25:04.209Z,26.83
2023-02-12T20:27:07.074Z,25.10
2023-02-12T20:29:10.029Z,24.73
2023-02-12T20:31:14.832Z,29.23
2023-02-12T20:33:17.810Z,24.53
2023-02-12T20:35:21.752Z,23.73
2023-02-12T20:37:24.630Z,24.77
2023-02-12T20:39:28.890Z,29.77
2023-02-12T20:41:31.780Z,24.40
2023-02-12T20:43:35.326Z,24.70
2023-02-12T20:45:38.238Z,25.80
2023-02-12T20:47:41.147Z,28.27
2023-02-12T20:49:43.987Z,25.83
2023-02-12T20:51:48.464Z,28.70
2023-02-12T20:53:51.824Z,34.00
2023-02-12T20:55:56.038Z,28.20
2023-02-12T20:57:59.217Z,25.37
2023-02-12T21:00:02.599Z,26.33
2023-02-12T21:02:05.900Z,30.60
2023-02-12T21:04:10.524Z,27.57
2023-02-12T21:06:13.550Z,33.37
2023-02-12T21:08:16.392Z,26.33
2023-02-12T21:10:19.410Z,25.10
2023-02-12T21:12:23.700Z,28.40
2023-02-12T21:14:26.868Z,30.23
2023-02-12T21:16:31.262Z,26.57
2023-02-12T21:18:34.379Z,25.53
2023-02-12T21:20:37.365Z,28.50
2023-02-12T21:22:40.194Z,29.73
2023-02-12T21:24:43.025Z,28.80
2023-02-12T21:26:46.314Z,34.10
2023-02-12T21:28:51.409Z,34.77
2023-02-12T21:30:54.518Z,26.87
2023-02-12T21:32:57.520Z,28.57
2023-02-12T21:35:00.410Z,30.50
2023-02-12T21:37:03.431Z,29.00
2023-02-12T21:39:07.851Z,26.53
2023-02-12T21:41:12.851Z,26.53
2023-02-12T21:43:15.715Z,26.37
2023-02-12T21:45:20.188Z,29.30
2023-02-12T21:47:23.014Z,26.03
2023-02-12T21:49:27.639Z,28.53
2023-02-12T21:51:32.040Z,26.87
2023-02-12T21:53:34.918Z,30.23
2023-02-12T21:55:38.062Z,25.20
2023-02-12T21:57:40.930Z,26.90
2023-02-12T21:59:43.817Z,25.90
2023-02-12T22:01:50.071Z,26.50
2023-02-12T22:03:53.626Z,28.60
2023-02-12T22:06:00.949Z,28.47
2023-02-12T22:08:04.553Z,27.10
2023-02-12T22:10:09.351Z,27.40
2023-02-12T22:12:12.272Z,29.10
2023-02-12T22:14:17.918Z,26.07
2023-02-12T22:16:22.861Z,28.43
2023-02-12T22:18:27.111Z,25.73
2023-02-12T22:20:29.954Z,26.43
2023-02-12T22:22:32.809Z,29.83
2023-02-12T22:24:37.182Z,26.23
2023-02-12T22:26:40.002Z,26.07
2023-02-12T22:28:44.318Z,23.93
2023-02-12T22:30:47.632Z,22.93
2023-02-12T22:32:50.544Z,20.63
2023-02-12T22:34:54.997Z,23.90
2023-02-12T22:36:57.830Z,26.50
2023-02-12T22:39:01.645Z,27.90
2023-02-12T22:41:04.775Z,24.07
2023-02-12T22:43:07.625Z,26.27
2023-02-12T22:45:10.791Z,27.83
2023-02-12T22:47:13.726Z,25.63
2023-02-12T22:49:16.989Z,29.33
2023-02-12T22:51:22.974Z,24.70
2023-02-12T22:53:26.599Z,26.30
2023-02-12T22:55:29.522Z,24.10
2023-02-12T22:57:32.362Z,27.17
2023-02-12T22:59:35.167Z,26.63
2023-02-12T23:01:38.840Z,26.37
2023-02-12T23:03:42.526Z,25.53
2023-02-12T23:05:45.413Z,27.50
2023-02-12T23:07:49.617Z,26.87
2023-02-12T23:09:52.525Z,26.40
2023-02-12T23:11:55.604Z,28.70
2023-02-12T23:13:58.840Z,25.27
2023-02-12T23:16:01.915Z,25.97
2023-02-12T23:18:06.090Z,28.73
2023-02-12T23:20:10.120Z,27.30
2023-02-12T23:22:13.099Z,29.97
2023-02-12T23:24:17.416Z,29.57
2023-02-12T23:26:20.403Z,31.13
2023-02-12T23:28:23.875Z,24.27
2023-02-12T23:30:26.849Z,26.03
2023-02-12T23:32:29.779Z,29.90
2023-02-12T23:34:32.654Z,30.40
2023-02-12T23:36:35.492Z,28.03
2023-02-12T23:38:38.328Z,26.50
2023-02-12T23:40:42.748Z,30.10
2023-02-12T23:42:46.638Z,33.13
2023-02-12T23:44:49.585Z,27.17
2023-02-12T23:46:53.831Z,31.13
2023-02-12T23:48:56.667Z,28.83
2023-02-12T23:50:59.836Z,30.43
2023-02-12T23:53:02.809Z,26.00
2023-02-12T23:55:06.212Z,31.33
2023-02-12T23:57:10.418Z,28.03
2023-02-12T23:59:13.266Z,33.57
